This is the latest recevied weather packets stored in our database for station/object IT9FDP-13. If no packets are shown the sender has not sent any weather packets the latest 10 day(s).
| Time | Temp. | Humidity | Pressure | Rain* | Wind** | Luminosity | Snow |
|---|---|---|---|---|---|---|---|
| 1777872318 | 19.44° C | 53% | 1018.8 hPa | 0 mm | - | - | - |
| 1777871724 | 18.89° C | 54% | 1018.7 hPa | 0 mm | - | - | - |
| 1777869624 | 16.67° C | 60% | 1018.5 hPa | 0 mm | - | - | - |
| 1777867219 | 15.56° C | 65% | 1018.3 hPa | 0 mm | - | - | - |
| 1777866916 | 15.56° C | 65% | 1018.3 hPa | 0 mm | - | - | - |
| 1777863918 | 15.56° C | 68% | 1018.3 hPa | 0 mm | - | - | - |
| 1777863025 | 16.11° C | 67% | 1018.2 hPa | 0 mm | - | - | - |
| 1777862128 | 16.11° C | 66% | 1018.3 hPa | 0 mm | - | - | - |
| 1777861822 | 16.11° C | 65% | 1018.3 hPa | 0 mm | - | - | - |
| 1777860024 | 15.56° C | 65% | 1018.5 hPa | 0 mm | - | - | - |
| 1777859718 | 15.56° C | 65% | 1018.5 hPa | 0 mm | - | - | - |
| 1777857923 | 15° C | 68% | 1018.6 hPa | 0 mm | - | - | - |
| 1777856739 | 15.56° C | 69% | 1018.6 hPa | 0 mm | - | - | - |
| 1777854917 | 15.56° C | 71% | 1018.6 hPa | 0 mm | - | - | - |
| 1777852820 | 16.11° C | 71% | 1018.7 hPa | 0 mm | - | - | - |
| 1777849545 | 16.67° C | 71% | 1019 hPa | 0 mm | - | - | - |
| 1777846245 | 16.67° C | 71% | 1019.2 hPa | 0 mm | - | - | - |
| 1777845917 | 16.67° C | 71% | 1019.1 hPa | 0 mm | - | - | - |
| 1777843538 | 16.67° C | 70% | 1019.2 hPa | 0 mm | - | - | - |
| 1777842917 | 16.67° C | 70% | 1019.1 hPa | 0 mm | - | - | - |
| 1777841424 | 17.22° C | 69% | 1019.2 hPa | 0 mm | - | - | - |
| 1777841119 | 17.22° C | 69% | 1019 hPa | 0 mm | - | - | - |
| 1777831822 | 18.33° C | 62% | 1018.5 hPa | 0 mm | - | - | - |
| 1777830643 | 18.33° C | 60% | 1018.3 hPa | 0 mm | - | - | - |
| 1777828825 | 18.89° C | 61% | 1018 hPa | 0 mm | - | - | - |
* Rain latest hour (hover to see other rain measurements)
** Current wind speed in m/s (hover to see current wind gust speed)